createdAt,value
2022-12-09T00:02:11.454Z,100067.06
2022-12-09T00:04:38.442Z,100068.72
2022-12-09T00:07:05.191Z,100064.31
2022-12-09T00:09:33.938Z,100062.50
2022-12-09T00:12:04.022Z,100067.63
2022-12-09T00:14:30.922Z,100065.84
2022-12-09T00:16:58.163Z,100070.03
2022-12-09T00:19:25.029Z,100064.72
2022-12-09T00:21:54.554Z,100075.03
2022-12-09T00:24:21.353Z,100074.91
2022-12-09T00:26:47.998Z,100067.16
2022-12-09T00:29:14.785Z,100077.41
2022-12-09T00:31:41.586Z,100076.44
2022-12-09T00:34:12.020Z,100076.44
2022-12-09T00:36:39.054Z,100076.28
2022-12-09T00:39:05.926Z,100074.47
2022-12-09T00:41:33.034Z,100077.13
2022-12-09T00:43:59.904Z,100072.66
2022-12-09T00:46:26.676Z,100078.56
2022-12-09T00:48:53.388Z,100080.22
2022-12-09T00:51:22.406Z,100084.50
2022-12-09T00:53:53.836Z,100075.00
2022-12-09T00:56:23.855Z,100072.50
2022-12-09T00:58:50.675Z,100082.66
2022-12-09T01:01:17.517Z,100088.50
2022-12-09T01:03:44.359Z,100087.63
2022-12-09T01:06:14.749Z,100093.63
2022-12-09T01:08:42.906Z,100096.94
2022-12-09T01:11:17.871Z,100096.03
2022-12-09T01:13:44.707Z,100095.22
2022-12-09T01:16:17.344Z,100099.50
2022-12-09T01:18:45.193Z,100099.38
2022-12-09T01:21:12.131Z,100103.50
2022-12-09T01:23:38.835Z,100096.50
2022-12-09T01:26:06.741Z,100095.63
2022-12-09T01:28:37.932Z,100097.47
2022-12-09T01:31:19.412Z,100106.81
2022-12-09T01:33:46.332Z,100101.44
2022-12-09T01:36:16.895Z,100101.31
2022-12-09T01:38:44.283Z,100102.09
2022-12-09T01:41:10.998Z,100102.88
2022-12-09T01:43:39.361Z,100103.75
2022-12-09T01:46:06.447Z,100100.38
2022-12-09T01:48:36.567Z,100100.13
2022-12-09T01:51:10.155Z,100104.50
2022-12-09T01:53:39.662Z,100107.38
2022-12-09T01:56:10.868Z,100095.66
2022-12-09T01:58:37.571Z,100087.03
2022-12-09T02:01:04.686Z,100089.25
2022-12-09T02:03:31.827Z,100086.47
2022-12-09T02:05:58.891Z,100093.19
2022-12-09T02:08:25.737Z,100100.03
2022-12-09T02:11:14.442Z,100092.97
2022-12-09T02:13:55.350Z,100099.66
2022-12-09T02:16:25.557Z,100103.88
2022-12-09T02:19:05.197Z,100104.66
2022-12-09T02:21:34.659Z,100108.94
2022-12-09T02:24:09.005Z,100105.66
2022-12-09T02:27:21.228Z,100108.31
2022-12-09T02:30:03.192Z,100110.88
2022-12-09T02:33:07.924Z,100113.56
2022-12-09T02:35:53.504Z,100107.75
2022-12-09T02:38:26.042Z,100104.50
2022-12-09T02:41:00.377Z,100104.63
2022-12-09T02:43:28.523Z,100092.63
2022-12-09T02:45:56.072Z,100097.00
2022-12-09T02:48:25.812Z,100098.72
2022-12-09T02:50:53.794Z,100105.72
2022-12-09T02:53:21.592Z,100103.03
2022-12-09T02:55:49.248Z,100115.09
2022-12-09T02:58:16.006Z,100114.28
2022-12-09T03:00:43.065Z,100110.09
2022-12-09T03:03:16.634Z,100105.88
2022-12-09T03:05:56.557Z,100107.81
2022-12-09T03:08:35.515Z,100111.34
2022-12-09T03:11:06.893Z,100105.44
2022-12-09T03:13:39.999Z,100108.78
2022-12-09T03:16:31.105Z,100104.56
2022-12-09T03:19:06.583Z,100103.63
2022-12-09T03:21:36.656Z,100107.06
2022-12-09T03:24:08.023Z,100096.75
2022-12-09T03:26:35.851Z,100100.59
2022-12-09T03:29:06.067Z,100103.84
2022-12-09T03:31:35.064Z,100109.03
2022-12-09T03:34:04.044Z,100113.34
2022-12-09T03:36:37.871Z,100110.59
2022-12-09T03:39:07.637Z,100100.16
2022-12-09T03:41:34.878Z,100096.34
2022-12-09T03:44:13.225Z,100095.50
2022-12-09T03:46:40.376Z,100103.31
2022-12-09T03:49:07.403Z,100099.75
2022-12-09T03:51:49.316Z,100099.53
2022-12-09T03:54:34.022Z,100090.34
2022-12-09T03:57:01.346Z,100091.03
2022-12-09T03:59:31.335Z,100098.59
2022-12-09T04:01:58.243Z,100095.47
2022-12-09T04:04:25.257Z,100093.41
2022-12-09T04:06:53.115Z,100085.28
2022-12-09T04:09:19.976Z,100089.22
2022-12-09T04:11:46.957Z,100090.53
2022-12-09T04:14:15.764Z,100093.06
2022-12-09T04:16:43.558Z,100090.44
2022-12-09T04:19:10.942Z,100084.44
2022-12-09T04:21:37.943Z,100087.69
2022-12-09T04:24:04.911Z,100095.72
2022-12-09T04:26:31.798Z,100091.38
2022-12-09T04:28:58.664Z,100088.75
2022-12-09T04:31:25.795Z,100083.94
2022-12-09T04:33:53.627Z,100096.94
2022-12-09T04:36:21.183Z,100089.00
2022-12-09T04:38:48.618Z,100093.34
2022-12-09T04:41:16.311Z,100095.03
2022-12-09T04:43:43.275Z,100089.16
2022-12-09T04:46:16.121Z,100094.41
2022-12-09T04:48:43.753Z,100092.78
2022-12-09T04:51:12.094Z,100089.34
2022-12-09T04:53:38.862Z,100090.16
2022-12-09T04:56:09.238Z,100096.06
2022-12-09T04:58:36.129Z,100093.47
2022-12-09T05:01:10.603Z,100090.66
2022-12-09T05:03:37.940Z,100091.91
2022-12-09T05:06:06.483Z,100091.47
2022-12-09T05:08:33.579Z,100095.78
2022-12-09T05:11:00.832Z,100093.56
2022-12-09T05:13:28.052Z,100098.31
2022-12-09T05:16:13.912Z,100098.22
2022-12-09T05:18:43.199Z,100099.84
2022-12-09T05:21:13.148Z,100094.97
2022-12-09T05:23:40.066Z,100095.03
2022-12-09T05:26:08.770Z,100097.34
2022-12-09T05:28:36.133Z,100105.19
2022-12-09T05:31:04.841Z,100098.38
2022-12-09T05:33:32.000Z,100094.94
2022-12-09T05:35:58.997Z,100093.50
2022-12-09T05:38:26.352Z,100097.91
2022-12-09T05:40:53.712Z,100095.22
2022-12-09T05:43:20.596Z,100097.84
2022-12-09T05:45:47.905Z,100096.88
2022-12-09T05:48:14.911Z,100101.13
2022-12-09T05:50:41.735Z,100097.00
2022-12-09T05:53:08.500Z,100095.56
2022-12-09T05:55:35.714Z,100093.53
2022-12-09T05:58:02.776Z,100091.63
2022-12-09T06:00:29.755Z,100099.44
2022-12-09T06:02:56.854Z,100101.41
2022-12-09T06:05:23.873Z,100103.94
2022-12-09T06:07:50.863Z,100102.56
2022-12-09T06:10:18.347Z,100097.19
2022-12-09T06:12:45.467Z,100090.28
2022-12-09T06:15:15.633Z,100101.44
2022-12-09T06:17:45.512Z,100100.66
2022-12-09T06:20:13.268Z,100102.41
2022-12-09T06:22:40.225Z,100099.69
2022-12-09T06:25:07.490Z,100099.69
2022-12-09T06:27:34.431Z,100104.09
2022-12-09T06:30:01.268Z,100104.09
2022-12-09T06:32:28.057Z,100106.75
2022-12-09T06:34:55.154Z,100110.31
2022-12-09T06:37:21.852Z,100110.28
2022-12-09T06:39:48.636Z,100104.28
2022-12-09T06:42:15.639Z,100106.06
2022-12-09T06:44:42.599Z,100106.94
2022-12-09T06:47:09.849Z,100106.16
2022-12-09T06:49:36.940Z,100112.31
2022-12-09T06:52:03.959Z,100110.47
2022-12-09T06:54:30.944Z,100114.88
2022-12-09T06:56:57.816Z,100109.72
2022-12-09T06:59:25.423Z,100123.38
2022-12-09T07:01:52.584Z,100119.06
2022-12-09T07:04:19.651Z,100118.16
2022-12-09T07:06:46.972Z,100118.22
2022-12-09T07:09:16.593Z,100123.41
2022-12-09T07:11:46.335Z,100125.09
2022-12-09T07:14:14.744Z,100126.97
2022-12-09T07:16:42.128Z,100127.72
2022-12-09T07:19:16.296Z,100132.16
2022-12-09T07:21:43.156Z,100133.78
2022-12-09T07:24:11.936Z,100136.41
2022-12-09T07:26:38.932Z,100146.00
2022-12-09T07:29:06.619Z,100143.44
2022-12-09T07:31:34.556Z,100136.63
2022-12-09T07:34:01.924Z,100134.91
2022-12-09T07:36:30.344Z,100140.16
2022-12-09T07:39:06.132Z,100131.56
2022-12-09T07:41:33.218Z,100139.41
2022-12-09T07:44:00.480Z,100143.75
2022-12-09T07:46:30.326Z,100149.84
2022-12-09T07:48:58.354Z,100148.19
2022-12-09T07:51:25.843Z,100151.66
2022-12-09T07:53:53.657Z,100147.53
2022-12-09T07:56:21.049Z,100152.84
2022-12-09T07:58:48.788Z,100147.56
2022-12-09T08:01:18.221Z,100150.97
2022-12-09T08:03:46.467Z,100154.44
2022-12-09T08:06:16.121Z,100151.91
2022-12-09T08:08:44.283Z,100153.59
2022-12-09T08:11:21.781Z,100147.63
2022-12-09T08:13:49.171Z,100158.97
2022-12-09T08:16:18.759Z,100149.44
2022-12-09T08:18:47.129Z,100147.84
2022-12-09T08:21:17.005Z,100147.09
2022-12-09T08:23:44.953Z,100143.63
2022-12-09T08:26:13.610Z,100150.56
2022-12-09T08:28:41.069Z,100145.47
2022-12-09T08:31:09.713Z,100141.53
2022-12-09T08:33:37.373Z,100144.22
2022-12-09T08:36:07.742Z,100139.91
2022-12-09T08:38:37.109Z,100141.63
2022-12-09T08:41:09.891Z,100142.41
2022-12-09T08:43:36.867Z,100136.31
2022-12-09T08:46:04.018Z,100146.75
2022-12-09T08:48:30.854Z,100145.03
2022-12-09T08:50:58.025Z,100144.09
2022-12-09T08:53:24.679Z,100137.25
2022-12-09T08:55:51.555Z,100139.91
2022-12-09T08:58:18.640Z,100128.72
2022-12-09T09:00:45.477Z,100133.06
2022-12-09T09:03:12.478Z,100139.22
2022-12-09T09:05:40.377Z,100144.50
2022-12-09T09:08:07.436Z,100142.81
2022-12-09T09:10:34.422Z,100148.09
2022-12-09T09:13:01.161Z,100146.28
2022-12-09T09:15:28.308Z,100146.28
2022-12-09T09:17:55.064Z,100146.38
2022-12-09T09:20:21.869Z,100151.59
2022-12-09T09:22:49.242Z,100158.50
2022-12-09T09:25:16.297Z,100155.03
2022-12-09T09:27:43.386Z,100156.69
2022-12-09T09:30:10.714Z,100162.78
2022-12-09T09:32:38.016Z,100155.78
2022-12-09T09:35:05.379Z,100163.59
2022-12-09T09:37:32.316Z,100153.19
2022-12-09T09:39:59.081Z,100162.66
2022-12-09T09:42:34.472Z,100155.00
2022-12-09T09:45:04.736Z,100151.69
2022-12-09T09:47:44.060Z,100150.84
2022-12-09T09:50:38.721Z,100155.16
2022-12-09T09:53:26.713Z,100145.69
2022-12-09T09:56:00.027Z,100142.09
2022-12-09T09:58:36.636Z,100148.28
2022-12-09T10:01:07.795Z,100145.75
2022-12-09T10:03:56.515Z,100148.75
2022-12-09T10:06:48.797Z,100154.06
2022-12-09T10:09:22.000Z,100153.09
2022-12-09T10:12:02.011Z,100152.97
2022-12-09T10:14:40.986Z,100140.94
2022-12-09T10:17:29.146Z,100147.97
2022-12-09T10:20:03.624Z,100147.91
2022-12-09T10:22:54.062Z,100140.19
2022-12-09T10:25:26.058Z,100137.72
2022-12-09T10:27:55.506Z,100136.72
2022-12-09T10:30:22.458Z,100139.22
2022-12-09T10:32:49.452Z,100133.81
2022-12-09T10:35:19.870Z,100132.03
2022-12-09T10:37:48.551Z,100133.63
2022-12-09T10:40:38.268Z,100134.53
2022-12-09T10:43:44.208Z,100143.31
2022-12-09T10:46:20.070Z,100132.16
2022-12-09T10:48:49.029Z,100138.25
2022-12-09T10:51:25.151Z,100139.25
2022-12-09T10:54:21.038Z,100140.22
2022-12-09T10:57:05.170Z,100138.81
2022-12-09T10:59:32.782Z,100133.75
2022-12-09T11:02:11.507Z,100134.28
2022-12-09T11:04:42.929Z,100137.59
2022-12-09T11:07:13.034Z,100137.53
2022-12-09T11:09:46.067Z,100135.78
2022-12-09T11:12:30.918Z,100128.00
2022-12-09T11:15:01.364Z,100133.19
2022-12-09T11:17:33.294Z,100131.41
2022-12-09T11:20:07.151Z,100135.78
2022-12-09T11:22:42.302Z,100129.94
2022-12-09T11:25:12.280Z,100128.94
2022-12-09T11:27:43.333Z,100130.66
2022-12-09T11:30:20.081Z,100126.38
2022-12-09T11:32:53.791Z,100119.53
2022-12-09T11:35:34.866Z,100122.22
2022-12-09T11:38:21.620Z,100116.22
2022-12-09T11:41:13.615Z,100108.28
2022-12-09T11:43:49.622Z,100114.38
2022-12-09T11:46:29.380Z,100112.59
2022-12-09T11:49:22.538Z,100114.44
2022-12-09T11:52:01.340Z,100114.59
2022-12-09T11:54:31.451Z,100106.75
2022-12-09T11:56:59.262Z,100099.91
2022-12-09T11:59:48.884Z,100099.97
2022-12-09T12:02:38.844Z,100110.25
2022-12-09T12:05:30.129Z,100104.34
2022-12-09T12:08:03.648Z,100106.94
2022-12-09T12:10:35.831Z,100098.31
2022-12-09T12:13:09.444Z,100095.03
2022-12-09T12:15:48.615Z,100101.03
2022-12-09T12:18:21.319Z,100097.31
2022-12-09T12:21:06.300Z,100102.44
2022-12-09T12:24:04.226Z,100092.03
2022-12-09T12:27:03.186Z,100104.16
2022-12-09T12:30:08.329Z,100101.50
2022-12-09T12:32:39.089Z,100103.88
2022-12-09T12:35:21.368Z,100109.06
2022-12-09T12:38:16.241Z,100106.41
2022-12-09T12:41:01.674Z,100114.22
2022-12-09T12:44:19.473Z,100104.63
2022-12-09T12:47:06.300Z,100103.88
2022-12-09T12:49:47.738Z,100102.25
2022-12-09T12:52:55.106Z,100092.72
2022-12-09T12:55:49.629Z,100102.31
2022-12-09T12:58:33.430Z,100087.59
2022-12-09T13:01:06.643Z,100090.19
2022-12-09T13:04:07.713Z,100077.97
2022-12-09T13:06:40.907Z,100095.22
2022-12-09T13:09:23.033Z,100092.47
2022-12-09T13:11:56.322Z,100084.56
2022-12-09T13:14:39.892Z,100091.44
2022-12-09T13:17:08.691Z,100087.16
2022-12-09T13:19:41.078Z,100090.66
2022-12-09T13:22:14.395Z,100084.72
2022-12-09T13:24:59.943Z,100082.44
2022-12-09T13:27:34.982Z,100090.84
2022-12-09T13:30:06.454Z,100097.78
2022-12-09T13:32:59.416Z,100091.84
2022-12-09T13:35:37.519Z,100083.06
2022-12-09T13:38:04.203Z,100089.09
2022-12-09T13:40:36.782Z,100076.88
2022-12-09T13:43:03.337Z,100086.34
2022-12-09T13:45:54.768Z,100075.31
2022-12-09T13:48:24.104Z,100075.19
2022-12-09T13:50:59.832Z,100070.66
2022-12-09T13:53:49.043Z,100074.97
2022-12-09T13:56:29.052Z,100069.22
2022-12-09T13:59:23.567Z,100068.00
2022-12-09T14:01:56.409Z,100073.19
2022-12-09T14:04:27.842Z,100072.38
2022-12-09T14:07:13.328Z,100069.75
2022-12-09T14:09:54.406Z,100081.72
2022-12-09T14:12:27.287Z,100085.22
2022-12-09T14:14:55.493Z,100084.81
2022-12-09T14:17:25.163Z,100089.88
2022-12-09T14:20:00.147Z,100077.78
2022-12-09T14:22:26.690Z,100070.13
2022-12-09T14:24:57.963Z,100088.03
2022-12-09T14:27:29.190Z,100092.16
2022-12-09T14:30:04.017Z,100087.78
2022-12-09T14:32:52.347Z,100094.56
2022-12-09T14:35:44.802Z,100098.03
2022-12-09T14:38:23.459Z,100101.50
2022-12-09T14:41:12.524Z,100095.63
2022-12-09T14:44:08.348Z,100105.25
2022-12-09T14:46:37.266Z,100105.03
2022-12-09T14:49:12.489Z,100105.78
2022-12-09T14:51:45.198Z,100104.25
2022-12-09T14:54:19.612Z,100097.22
2022-12-09T14:56:49.584Z,100103.25
2022-12-09T14:59:21.895Z,100099.78
2022-12-09T15:01:51.753Z,100105.75
2022-12-09T15:04:41.358Z,100100.69
2022-12-09T15:07:17.538Z,100097.94
2022-12-09T15:09:50.612Z,100103.22
2022-12-09T15:12:18.598Z,100104.91
2022-12-09T15:14:45.922Z,100102.28
2022-12-09T15:17:25.166Z,100098.81
2022-12-09T15:20:00.145Z,100094.41
2022-12-09T15:22:30.426Z,100096.09
2022-12-09T15:24:57.058Z,100097.81
2022-12-09T15:27:25.854Z,100097.88
2022-12-09T15:29:53.555Z,100105.63
2022-12-09T15:32:28.889Z,100103.09
2022-12-09T15:34:56.202Z,100106.59
2022-12-09T15:37:27.438Z,100106.66
2022-12-09T15:40:04.272Z,100107.56
2022-12-09T15:42:33.262Z,100110.09
2022-12-09T15:45:04.486Z,100117.84
2022-12-09T15:47:39.176Z,100116.16
2022-12-09T15:50:29.036Z,100122.16
2022-12-09T15:53:15.287Z,100130.84
2022-12-09T15:55:50.548Z,100129.84
2022-12-09T15:58:23.445Z,100129.06
2022-12-09T16:00:51.121Z,100131.00
2022-12-09T16:03:32.745Z,100124.03
2022-12-09T16:06:05.047Z,100117.00
2022-12-09T16:08:37.966Z,100126.50
2022-12-09T16:11:04.949Z,100125.50
2022-12-09T16:13:31.705Z,100127.88
2022-12-09T16:16:00.545Z,100129.66
2022-12-09T16:18:32.433Z,100137.50
2022-12-09T16:21:20.927Z,100140.91
2022-12-09T16:23:50.173Z,100145.97
2022-12-09T16:26:24.047Z,100140.03
2022-12-09T16:28:56.127Z,100143.38
2022-12-09T16:31:22.909Z,100140.63
2022-12-09T16:33:50.010Z,100155.50
2022-12-09T16:36:24.519Z,100154.59
2022-12-09T16:39:09.603Z,100148.59
2022-12-09T16:41:55.897Z,100148.63
2022-12-09T16:44:42.766Z,100150.31
2022-12-09T16:47:11.633Z,100150.13
2022-12-09T16:49:40.956Z,100158.72
2022-12-09T16:52:11.481Z,100158.69
2022-12-09T16:54:38.268Z,100151.19
2022-12-09T16:57:04.971Z,100148.59
2022-12-09T16:59:37.589Z,100144.22
2022-12-09T17:02:24.236Z,100147.16
2022-12-09T17:04:51.597Z,100142.78
2022-12-09T17:07:18.288Z,100138.25
2022-12-09T17:09:44.927Z,100144.88
2022-12-09T17:12:11.665Z,100143.88
2022-12-09T17:14:38.293Z,100147.28
2022-12-09T17:17:04.985Z,100141.41
2022-12-09T17:19:31.696Z,100140.53
2022-12-09T17:21:58.400Z,100134.13
2022-12-09T17:24:25.045Z,100132.47
2022-12-09T17:26:51.925Z,100129.84
2022-12-09T17:29:18.519Z,100126.13
2022-12-09T17:31:45.179Z,100126.72
2022-12-09T17:34:11.842Z,100126.81
2022-12-09T17:36:38.525Z,100130.28
2022-12-09T17:39:06.191Z,100131.16
2022-12-09T17:41:33.371Z,100131.69
2022-12-09T17:44:00.880Z,100133.41
2022-12-09T17:46:27.687Z,100135.78
2022-12-09T17:48:54.300Z,100130.72
2022-12-09T17:51:21.051Z,100144.63
2022-12-09T17:53:48.280Z,100144.00
2022-12-09T17:56:21.258Z,100143.84
2022-12-09T17:58:53.957Z,100149.16
2022-12-09T18:01:22.646Z,100142.78
2022-12-09T18:03:59.410Z,100148.69
2022-12-09T18:06:31.693Z,100147.41
2022-12-09T18:08:58.351Z,100155.00
2022-12-09T18:11:24.912Z,100160.28
2022-12-09T18:13:51.673Z,100154.25
2022-12-09T18:16:18.512Z,100154.50
2022-12-09T18:18:45.771Z,100151.00
2022-12-09T18:21:15.999Z,100154.19
2022-12-09T18:23:43.208Z,100149.94
2022-12-09T18:26:14.747Z,100145.41
2022-12-09T18:28:41.776Z,100148.50
2022-12-09T18:31:10.196Z,100152.72
2022-12-09T18:33:37.797Z,100154.41
2022-12-09T18:36:10.344Z,100150.00
2022-12-09T18:38:37.837Z,100148.34
2022-12-09T18:41:04.667Z,100156.97
2022-12-09T18:43:34.195Z,100157.88
2022-12-09T18:46:25.122Z,100164.75
2022-12-09T18:49:13.512Z,100173.44
2022-12-09T18:51:41.418Z,100170.88
2022-12-09T18:54:08.487Z,100175.81
2022-12-09T18:56:36.113Z,100171.22
2022-12-09T18:59:07.467Z,100168.56
2022-12-09T19:01:41.027Z,100163.13
2022-12-09T19:04:19.421Z,100167.38
2022-12-09T19:06:47.540Z,100153.69
2022-12-09T19:09:17.147Z,100160.63
2022-12-09T19:11:44.952Z,100160.53
2022-12-09T19:14:12.228Z,100161.34
2022-12-09T19:16:38.854Z,100156.19
2022-12-09T19:19:09.461Z,100160.28
2022-12-09T19:21:37.239Z,100163.19
2022-12-09T19:24:03.973Z,100163.66
2022-12-09T19:26:32.558Z,100174.13
2022-12-09T19:29:01.633Z,100167.50
2022-12-09T19:31:30.707Z,100171.53
2022-12-09T19:34:03.798Z,100170.81
2022-12-09T19:36:31.175Z,100169.25
2022-12-09T19:38:58.364Z,100176.72
2022-12-09T19:41:27.791Z,100184.44
2022-12-09T19:43:55.587Z,100183.78
2022-12-09T19:46:22.722Z,100173.25
2022-12-09T19:48:49.629Z,100178.41
2022-12-09T19:51:17.992Z,100176.53
2022-12-09T19:53:44.669Z,100184.44
2022-12-09T19:56:16.704Z,100176.75
2022-12-09T19:58:44.153Z,100181.88
2022-12-09T20:01:13.148Z,100179.28
2022-12-09T20:03:41.146Z,100176.84
2022-12-09T20:06:10.174Z,100183.69
2022-12-09T20:08:37.583Z,100178.34
2022-12-09T20:11:05.587Z,100181.75
2022-12-09T20:13:32.468Z,100193.09
2022-12-09T20:16:06.277Z,100183.22
2022-12-09T20:18:33.005Z,100187.03
2022-12-09T20:21:09.260Z,100193.00
2022-12-09T20:23:37.144Z,100189.50
2022-12-09T20:26:14.256Z,100190.03
2022-12-09T20:28:42.217Z,100187.47
2022-12-09T20:31:16.940Z,100199.88
2022-12-09T20:33:43.823Z,100193.00
2022-12-09T20:36:13.139Z,100196.31
2022-12-09T20:38:40.426Z,100202.97
2022-12-09T20:41:09.956Z,100204.66
2022-12-09T20:43:39.597Z,100212.06
2022-12-09T20:46:14.966Z,100209.69
2022-12-09T20:48:42.422Z,100217.41
2022-12-09T20:51:21.611Z,100208.78
2022-12-09T20:53:48.743Z,100222.03
2022-12-09T20:56:16.317Z,100203.72
2022-12-09T20:58:43.794Z,100207.13
2022-12-09T21:01:16.103Z,100213.06
2022-12-09T21:03:43.500Z,100214.19
2022-12-09T21:06:11.047Z,100211.13
2022-12-09T21:08:37.788Z,100215.06
2022-12-09T21:11:06.288Z,100207.16
2022-12-09T21:13:37.122Z,100212.44
2022-12-09T21:16:13.409Z,100211.41
2022-12-09T21:18:40.100Z,100212.31
2022-12-09T21:21:06.706Z,100216.47
2022-12-09T21:23:35.406Z,100213.97
2022-12-09T21:26:06.936Z,100208.03
2022-12-09T21:28:34.526Z,100207.00
2022-12-09T21:31:21.882Z,100205.75
2022-12-09T21:33:49.711Z,100202.78
2022-12-09T21:36:23.788Z,100203.72
2022-12-09T21:38:50.884Z,100201.28
2022-12-09T21:41:23.199Z,100207.97
2022-12-09T21:43:49.964Z,100218.19
2022-12-09T21:46:19.887Z,100214.16
2022-12-09T21:48:52.034Z,100210.47
2022-12-09T21:51:19.928Z,100219.94
2022-12-09T21:53:47.091Z,100222.47
2022-12-09T21:56:25.878Z,100215.50
2022-12-09T21:58:55.310Z,100219.13
2022-12-09T22:01:26.009Z,100215.50
2022-12-09T22:03:53.848Z,100214.63
2022-12-09T22:06:20.504Z,100216.97
2022-12-09T22:08:47.281Z,100214.31
2022-12-09T22:11:22.837Z,100211.75
2022-12-09T22:13:49.819Z,100214.38
2022-12-09T22:16:19.779Z,100207.44
2022-12-09T22:18:46.849Z,100208.78
2022-12-09T22:21:24.617Z,100217.94
2022-12-09T22:23:54.003Z,100206.78
2022-12-09T22:26:21.079Z,100204.88
2022-12-09T22:28:47.764Z,100206.56
2022-12-09T22:31:26.134Z,100209.31
2022-12-09T22:33:54.843Z,100215.03
2022-12-09T22:36:22.349Z,100216.09
2022-12-09T22:38:49.155Z,100214.19
2022-12-09T22:41:21.409Z,100210.81
2022-12-09T22:43:49.042Z,100209.81
2022-12-09T22:46:18.364Z,100209.16
2022-12-09T22:48:45.530Z,100214.78
2022-12-09T22:51:21.727Z,100221.72
2022-12-09T22:53:50.101Z,100221.09
2022-12-09T22:56:16.873Z,100225.19
2022-12-09T22:58:43.533Z,100220.94
2022-12-09T23:01:12.000Z,100210.81
2022-12-09T23:03:39.117Z,100224.41
2022-12-09T23:06:06.522Z,100213.31
2022-12-09T23:08:33.315Z,100208.41
2022-12-09T23:11:03.038Z,100213.75
2022-12-09T23:13:30.643Z,100213.47
2022-12-09T23:16:01.220Z,100209.06
2022-12-09T23:18:29.792Z,100205.63
2022-12-09T23:20:56.418Z,100217.63
2022-12-09T23:23:23.034Z,100208.03
2022-12-09T23:25:49.612Z,100213.41
2022-12-09T23:28:16.318Z,100211.47
2022-12-09T23:30:43.012Z,100210.38
2022-12-09T23:33:09.845Z,100220.41
2022-12-09T23:35:38.633Z,100209.94
2022-12-09T23:38:05.234Z,100215.44
2022-12-09T23:40:31.843Z,100217.47
2022-12-09T23:42:58.546Z,100213.94
2022-12-09T23:45:25.144Z,100217.72
2022-12-09T23:47:51.771Z,100221.06
2022-12-09T23:50:18.705Z,100215.63
2022-12-09T23:52:45.344Z,100220.44
2022-12-09T23:55:12.068Z,100222.16
2022-12-09T23:57:38.673Z,100216.94
